Terminal Aerodrome Forecast
Issued by NWS

Home | Current Version | Previous Version | Text Only | Print | Product List | Glossary On
Versions: 1 2 3 4 5 6 7 8 9 10 11 12 13 14 15 16 17 18 19 20 21 22 23 24 25
000
FTAK31 PAFA 181810 CCA
TAFAOM
TAF COR
PAOM 181810Z 1818/1918 12022G32KT 1SM -SN BLSN BR BKN006 OVC010
     FM182100 15020G30KT 1 1/2SM -SN BLSN BR OVC006
     FM190000 18020KT 2SM -SN BLSN BKN006 OVC015
     FM190300 21012KT 4SM -SN BLSN BKN015 BKN025=

USA.gov is the U.S. government's official web portal to all federal, state and local government web resources and services.